Time;durP1;ratioP1;P1;durP2;ratioP2;P2;SDS_P1;SDS_P2;PMS_P1;PMS_P2;Temp;Humidity;BMP_temperature;BMP_pressure;BME280_temperature;BME280_humidity;BME280_pressure;Samples;Min_cycle;Max_cycle;Signal;HPM_P1;HPM_P2
2023/04/04 00:02:02;;;;;;;7.03;4.43;;;1.80;99.90;;;;;;4996108;28;20042;-35
2023/04/04 00:04:28;;;;;;;7.38;3.95;;;1.80;99.90;;;;;;5003714;28;20409;-36
2023/04/04 00:06:54;;;;;;;5.88;4.45;;;1.80;99.90;;;;;;5000066;28;20038;-36
2023/04/04 00:09:20;;;;;;;8.20;4.47;;;1.80;99.90;;;;;;5000926;28;20030;-35
2023/04/04 00:11:46;;;;;;;7.63;4.15;;;1.80;99.90;;;;;;4998589;28;20042;-35
2023/04/04 00:14:12;;;;;;;6.90;4.10;;;1.70;99.90;;;;;;5002375;28;20038;-35
2023/04/04 00:16:38;;;;;;;6.25;4.55;;;1.70;99.90;;;;;;5001612;28;20046;-35
2023/04/04 00:19:04;;;;;;;5.10;4.00;;;1.70;99.90;;;;;;5009930;28;20038;-35
2023/04/04 00:21:30;;;;;;;6.18;4.50;;;1.60;99.90;;;;;;5007768;28;20037;-36
2023/04/04 00:23:56;;;;;;;7.25;4.40;;;1.60;99.90;;;;;;5003796;28;20157;-35
2023/04/04 00:26:23;;;;;;;8.45;4.38;;;1.60;99.90;;;;;;5001047;28;20072;-35
2023/04/04 00:28:48;;;;;;;5.47;4.15;;;1.60;99.90;;;;;;4999897;28;20045;-35
2023/04/04 00:31:14;;;;;;;7.10;4.40;;;1.50;99.90;;;;;;5008573;28;20388;-35
2023/04/04 00:33:40;;;;;;;6.00;4.47;;;1.50;99.90;;;;;;5001060;28;20157;-35
2023/04/04 00:36:06;;;;;;;6.40;4.82;;;1.50;99.90;;;;;;5000527;28;20136;-35
2023/04/04 00:38:32;;;;;;;6.70;4.95;;;1.50;99.90;;;;;;4996926;28;20516;-35
2023/04/04 00:40:58;;;;;;;5.50;4.35;;;1.50;99.90;;;;;;5001041;28;20042;-35
2023/04/04 00:43:26;;;;;;;7.40;4.53;;;1.40;99.90;;;;;;5009976;28;20503;-35
2023/04/04 00:45:51;;;;;;;6.40;4.70;;;1.40;99.90;;;;;;5007265;28;20395;-35
2023/04/04 00:48:17;;;;;;;7.30;4.53;;;1.30;99.90;;;;;;5006719;28;20052;-35
2023/04/04 00:50:43;;;;;;;7.95;5.03;;;1.30;99.90;;;;;;5008005;28;20038;-35
2023/04/04 00:53:08;;;;;;;6.22;4.50;;;1.30;99.90;;;;;;5000403;28;20035;-36
2023/04/04 00:55:37;;;;;;;7.82;4.65;;;1.30;99.90;;;;;;5004402;28;20029;-35
2023/04/04 00:58:03;;;;;;;6.43;4.63;;;1.30;99.90;;;;;;5006691;28;20042;-35
2023/04/04 01:00:30;;;;;;;8.40;4.60;;;1.20;99.90;;;;;;5010189;28;20030;-35
2023/04/04 01:02:56;;;;;;;7.18;4.53;;;1.20;99.90;;;;;;5006596;28;20046;-35
2023/04/04 01:05:23;;;;;;;6.80;4.57;;;1.20;99.90;;;;;;4992545;28;20038;-35
2023/04/04 01:07:48;;;;;;;6.45;4.40;;;1.10;99.90;;;;;;4997315;28;20514;-35
2023/04/04 01:10:15;;;;;;;8.65;4.95;;;1.10;99.90;;;;;;5002286;28;20034;-35
2023/04/04 01:12:41;;;;;;;7.18;4.20;;;1.00;99.90;;;;;;5000320;28;20117;-35
2023/04/04 01:15:07;;;;;;;5.80;4.40;;;1.00;99.90;;;;;;4995854;28;20034;-35
2023/04/04 01:17:33;;;;;;;6.82;4.30;;;1.00;99.90;;;;;;4992197;28;20049;-35
2023/04/04 01:20:10;;;;;;;5.82;4.90;;;1.00;99.90;;;;;;4997067;28;20046;-35
2023/04/04 01:22:38;;;;;;;5.57;4.13;;;0.90;99.90;;;;;;5009071;28;20550;-35
2023/04/04 01:25:05;;;;;;;6.10;4.40;;;0.90;99.90;;;;;;5002505;28;20567;-35
2023/04/04 01:27:31;;;;;;;5.15;3.88;;;0.90;99.90;;;;;;5004651;28;20034;-35
2023/04/04 01:29:57;;;;;;;7.38;4.70;;;0.90;99.90;;;;;;5010140;28;20042;-35
2023/04/04 01:32:48;;;;;;;7.53;5.03;;;0.90;99.90;;;;;;4996189;28;20042;-35
2023/04/04 01:35:35;;;;;;;5.22;4.13;;;0.90;99.90;;;;;;5002953;28;20499;-35
2023/04/04 01:38:19;;;;;;;7.00;4.40;;;0.90;99.90;;;;;;4996447;28;20045;-35
2023/04/04 01:40:47;;;;;;;;;;;0.90;99.90;;;;;;4999780;28;20105;-35
2023/04/04 01:43:13;;;;;;;4.85;3.88;;;0.90;99.90;;;;;;5006352;28;19928;-35
2023/04/04 01:45:39;;;;;;;6.55;4.22;;;0.90;99.90;;;;;;5002322;28;20042;-35
2023/04/04 01:48:05;;;;;;;6.93;3.90;;;0.90;99.90;;;;;;5007131;28;20037;-35
2023/04/04 01:50:31;;;;;;;5.43;4.03;;;0.80;99.90;;;;;;4996620;28;20370;-35
2023/04/04 01:52:56;;;;;;;9.18;4.88;;;0.80;99.90;;;;;;5002429;28;20053;-35
2023/04/04 01:55:22;;;;;;;6.53;4.45;;;0.80;99.90;;;;;;4998961;28;20030;-35
2023/04/04 01:57:48;;;;;;;4.78;4.00;;;0.80;99.90;;;;;;5004947;28;20033;-35
2023/04/04 02:00:14;;;;;;;8.02;4.28;;;0.80;99.90;;;;;;5005989;28;20522;-35
2023/04/04 02:02:42;;;;;;;5.50;3.58;;;0.80;99.90;;;;;;5006675;28;20521;-35
2023/04/04 02:05:08;;;;;;;5.45;3.88;;;0.70;99.90;;;;;;5007957;28;20526;-35
2023/04/04 02:07:33;;;;;;;5.75;3.92;;;0.80;99.90;;;;;;4998418;28;20034;-35
2023/04/04 02:10:00;;;;;;;6.13;4.00;;;0.70;99.90;;;;;;5006316;28;20041;-35
2023/04/04 02:12:26;;;;;;;6.00;4.57;;;0.60;99.90;;;;;;5000802;28;20628;-35
2023/04/04 02:14:52;;;;;;;6.38;3.72;;;0.60;99.90;;;;;;4994349;28;20041;-35
2023/04/04 02:17:18;;;;;;;6.55;4.25;;;0.60;99.90;;;;;;5005471;28;20359;-35
2023/04/04 02:19:43;;;;;;;6.57;4.43;;;0.60;99.90;;;;;;5000240;28;20077;-35
2023/04/04 02:22:09;;;;;;;5.38;3.90;;;0.60;99.90;;;;;;5006395;28;20045;-35
2023/04/04 02:24:35;;;;;;;6.85;3.80;;;0.60;99.90;;;;;;5002212;28;20543;-35
2023/04/04 02:27:00;;;;;;;5.88;3.53;;;0.60;99.90;;;;;;4998574;28;20043;-35
2023/04/04 02:29:26;;;;;;;5.45;3.67;;;0.60;99.90;;;;;;5003403;28;20113;-35
2023/04/04 02:31:52;;;;;;;7.75;3.97;;;0.50;99.90;;;;;;4998595;28;20398;-35
2023/04/04 02:34:18;;;;;;;6.93;4.30;;;0.50;99.90;;;;;;5006018;28;20034;-35
2023/04/04 02:36:44;;;;;;;7.40;3.72;;;0.50;99.90;;;;;;5000103;28;20070;-35
2023/04/04 02:40:11;;;;;;;6.97;4.10;;;0.50;99.90;;;;;;5190268;27;20670;-34
2023/04/04 02:42:40;;;;;;;5.57;3.72;;;0.50;99.90;;;;;;5144369;27;20031;-35
2023/04/04 02:45:07;;;;;;;6.22;4.10;;;0.40;99.90;;;;;;5146200;27;20068;-35
2023/04/04 02:47:32;;;;;;;5.45;3.72;;;0.40;99.90;;;;;;5122373;28;20057;-35
2023/04/04 02:49:58;;;;;;;7.40;3.83;;;0.40;99.90;;;;;;5114683;27;20432;-35
2023/04/04 02:52:24;;;;;;;5.85;3.85;;;0.40;99.90;;;;;;5113987;27;20395;-35
2023/04/04 02:54:50;;;;;;;6.15;3.83;;;0.40;99.90;;;;;;5131261;27;20037;-35
2023/04/04 02:57:15;;;;;;;6.05;3.65;;;0.30;99.90;;;;;;5130324;27;20098;-35
2023/04/04 02:59:41;;;;;;;5.22;3.50;;;0.30;99.90;;;;;;5122168;27;20046;-35
2023/04/04 03:02:07;;;;;;;6.00;3.33;;;0.30;99.90;;;;;;5131083;27;20039;-35
2023/04/04 03:04:33;;;;;;;4.45;3.88;;;0.20;99.90;;;;;;5131209;27;20444;-35
2023/04/04 03:06:59;;;;;;;6.80;3.80;;;0.20;99.90;;;;;;5130945;27;20042;-35
2023/04/04 03:09:24;;;;;;;7.78;4.63;;;0.20;99.90;;;;;;5121164;27;20095;-35
2023/04/04 03:11:50;;;;;;;5.80;3.88;;;0.10;99.90;;;;;;5141619;27;20061;-35
2023/04/04 03:14:16;;;;;;;5.18;3.85;;;0.20;99.90;;;;;;5113520;27;20092;-35
2023/04/04 03:16:42;;;;;;;3.92;3.33;;;0.20;99.90;;;;;;5128032;27;20441;-35
2023/04/04 03:19:08;;;;;;;8.40;3.97;;;0.20;99.90;;;;;;5130079;27;20385;-34
2023/04/04 03:21:34;;;;;;;7.10;3.63;;;0.20;99.90;;;;;;5123884;27;20030;-34
2023/04/04 03:23:59;;;;;;;7.85;3.97;;;0.10;99.90;;;;;;5127531;27;20037;-35
2023/04/04 03:26:27;;;;;;;6.93;4.18;;;-0.10;99.90;;;;;;5104845;27;20035;-34
2023/04/04 03:28:52;;;;;;;8.55;4.10;;;0.10;99.90;;;;;;5126875;27;20035;-34
2023/04/04 03:31:18;;;;;;;4.68;3.40;;;0.10;99.90;;;;;;5136762;27;20106;-34
2023/04/04 03:33:44;;;;;;;7.53;3.63;;;0.10;99.90;;;;;;5126893;27;20539;-35
2023/04/04 03:36:11;;;;;;;4.97;3.70;;;0.00;99.90;;;;;;5102982;27;20293;-34
2023/04/04 03:38:37;;;;;;;7.65;3.58;;;0.00;99.90;;;;;;5121883;27;20041;-34
2023/04/04 03:41:04;;;;;;;6.25;4.10;;;0.00;99.90;;;;;;5121441;27;20519;-35
2023/04/04 03:43:31;;;;;;;6.65;3.65;;;0.00;99.90;;;;;;5122060;27;20381;-35
2023/04/04 03:46:01;;;;;;;5.05;3.50;;;0.00;99.90;;;;;;5125670;27;20026;-35
2023/04/04 03:48:27;;;;;;;5.93;3.92;;;0.00;99.90;;;;;;5128788;27;20039;-34
2023/04/04 03:50:53;;;;;;;4.43;3.40;;;-0.10;99.90;;;;;;5114276;27;20035;-34
2023/04/04 03:53:19;;;;;;;7.55;3.85;;;-0.10;99.90;;;;;;5113420;27;20119;-35
2023/04/04 03:55:44;;;;;;;4.00;3.33;;;-0.10;99.90;;;;;;5116029;27;20484;-35
2023/04/04 03:58:10;;;;;;;4.53;3.45;;;-0.10;99.90;;;;;;5115357;27;20043;-35
2023/04/04 04:00:36;;;;;;;4.95;3.53;;;-0.20;99.90;;;;;;5104367;28;20481;-35
2023/04/04 04:03:01;;;;;;;8.18;3.85;;;-0.20;99.90;;;;;;5105180;27;20121;-35
2023/04/04 04:05:27;;;;;;;4.05;3.30;;;-0.20;99.90;;;;;;5104224;28;20040;-35
2023/04/04 04:07:53;;;;;;;6.72;3.90;;;-0.20;99.90;;;;;;5103381;27;20043;-35
2023/04/04 04:10:18;;;;;;;4.38;3.35;;;-0.30;99.90;;;;;;5115769;27;20521;-35
2023/04/04 04:12:44;;;;;;;9.45;4.13;;;-0.30;99.90;;;;;;5111792;27;20400;-34
2023/04/04 04:15:10;;;;;;;5.43;3.30;;;-0.30;99.90;;;;;;5107800;27;20175;-34
2023/04/04 04:17:39;;;;;;;4.63;3.20;;;-0.40;99.90;;;;;;5115883;27;20480;-34
2023/04/04 04:20:08;;;;;;;6.65;3.50;;;-0.40;99.90;;;;;;5120099;27;20035;-35
2023/04/04 04:22:35;;;;;;;6.55;3.72;;;-0.40;99.90;;;;;;5111335;27;20058;-35
2023/04/04 04:25:00;;;;;;;5.18;3.40;;;-0.40;99.90;;;;;;5112082;27;20412;-35
2023/04/04 04:27:26;;;;;;;6.90;3.90;;;-0.40;99.90;;;;;;5108207;27;20039;-34
2023/04/04 04:29:52;;;;;;;5.80;3.17;;;-0.40;99.90;;;;;;5117158;27;20030;-34
2023/04/04 04:32:18;;;;;;;4.43;3.42;;;-0.40;99.90;;;;;;5113009;27;20518;-34
2023/04/04 04:34:44;;;;;;;6.55;3.92;;;-0.40;99.90;;;;;;5106802;27;20131;-35
2023/04/04 04:37:10;;;;;;;4.97;3.53;;;-0.40;99.90;;;;;;5113130;27;20045;-35
2023/04/04 04:39:36;;;;;;;6.07;4.10;;;-0.40;99.90;;;;;;5103818;27;20031;-35
2023/04/04 04:42:02;;;;;;;4.47;3.30;;;-0.40;99.90;;;;;;5112577;27;20038;-35
2023/04/04 04:44:27;;;;;;;4.97;3.78;;;-0.40;99.90;;;;;;5114639;27;20027;-35
2023/04/04 04:46:53;;;;;;;8.07;3.40;;;-0.40;99.90;;;;;;5115083;27;20077;-35
2023/04/04 04:49:19;;;;;;;5.53;3.25;;;-0.50;99.90;;;;;;5114301;27;20078;-35
2023/04/04 04:51:45;;;;;;;6.38;3.72;;;-0.50;99.90;;;;;;5114148;27;20369;-34
2023/04/04 04:54:10;;;;;;;6.30;3.88;;;-0.50;99.90;;;;;;5118045;27;20043;-34
2023/04/04 04:56:39;;;;;;;5.53;3.50;;;-0.50;99.90;;;;;;5114073;27;20419;-34
2023/04/04 04:59:06;;;;;;;7.60;3.78;;;-0.50;99.90;;;;;;5136441;27;20039;-35
2023/04/04 05:01:31;;;;;;;4.95;3.80;;;-0.50;99.90;;;;;;5111147;28;20031;-35
2023/04/04 05:03:57;;;;;;;6.72;3.50;;;-0.50;99.90;;;;;;5114752;27;20034;-35
2023/04/04 05:06:23;;;;;;;6.82;3.90;;;-0.50;99.90;;;;;;5081264;27;20399;-35
2023/04/04 05:08:49;;;;;;;5.97;3.90;;;-0.60;99.90;;;;;;5111245;27;20036;-35
2023/04/04 05:11:15;;;;;;;9.50;5.10;;;-0.60;99.90;;;;;;5114251;27;20094;-35
2023/04/04 05:13:40;;;;;;;7.47;4.95;;;-0.60;99.90;;;;;;5130213;27;20191;-35
2023/04/04 05:16:06;;;;;;;5.93;4.63;;;-0.60;99.90;;;;;;5125899;27;20399;-35
2023/04/04 05:18:32;;;;;;;7.10;4.45;;;-0.60;99.90;;;;;;5114612;27;20114;-35
2023/04/04 05:20:58;;;;;;;6.03;4.50;;;-0.60;99.90;;;;;;5096110;27;20027;-35
2023/04/04 05:23:25;;;;;;;5.68;4.28;;;-0.60;99.90;;;;;;5099385;27;20035;-35
2023/04/04 05:25:52;;;;;;;6.18;4.50;;;-0.60;99.90;;;;;;5113647;27;20537;-35
2023/04/04 05:28:19;;;;;;;7.57;4.30;;;-0.60;99.90;;;;;;5116142;27;20043;-35
2023/04/04 05:30:46;;;;;;;7.32;4.80;;;-0.60;99.90;;;;;;5108655;27;20039;-35
2023/04/04 05:33:12;;;;;;;5.72;4.20;;;-0.60;99.90;;;;;;5109475;27;20039;-35
2023/04/04 05:35:37;;;;;;;6.43;4.53;;;-0.50;99.90;;;;;;5114911;27;20170;-35
2023/04/04 05:38:03;;;;;;;6.43;4.65;;;-0.50;99.90;;;;;;5097147;27;20135;-35
2023/04/04 05:40:29;;;;;;;7.07;4.57;;;-0.50;99.90;;;;;;5114737;27;20035;-35
2023/04/04 05:42:59;;;;;;;7.95;4.75;;;-0.40;99.90;;;;;;5114014;27;20030;-35
2023/04/04 05:45:25;;;;;;;8.25;4.90;;;-0.40;99.90;;;;;;5108513;27;20046;-35
2023/04/04 05:47:51;;;;;;;6.90;4.45;;;-0.40;99.90;;;;;;5119728;27;20038;-35
2023/04/04 05:50:17;;;;;;;11.40;5.68;;;-0.30;99.90;;;;;;5117128;27;20035;-35
2023/04/04 05:52:45;;;;;;;10.85;6.40;;;-0.20;99.90;;;;;;5113736;27;20115;-35
2023/04/04 05:55:10;;;;;;;9.40;6.10;;;-0.10;99.90;;;;;;5113965;27;20460;-35
2023/04/04 05:57:36;;;;;;;10.40;5.75;;;-0.10;99.90;;;;;;5114403;27;20039;-35
2023/04/04 06:00:05;;;;;;;10.77;5.45;;;0.00;99.90;;;;;;5110516;27;20043;-35
2023/04/04 06:02:31;;;;;;;7.28;5.20;;;0.10;99.90;;;;;;5113742;27;20038;-35
2023/04/04 06:04:56;;;;;;;7.40;4.90;;;0.10;99.90;;;;;;5109791;27;20511;-35
2023/04/04 06:07:22;;;;;;;5.35;3.90;;;0.20;99.90;;;;;;5105267;27;20484;-35
2023/04/04 06:09:48;;;;;;;5.90;4.18;;;0.30;99.90;;;;;;5113990;27;20313;-35
2023/04/04 06:12:13;;;;;;;6.22;4.18;;;0.40;99.90;;;;;;5111382;27;20107;-35
2023/04/04 06:14:39;;;;;;;6.03;4.18;;;0.40;99.90;;;;;;5105364;27;20039;-35
2023/04/04 06:17:05;;;;;;;4.97;4.13;;;0.50;99.90;;;;;;5106155;27;20114;-35
2023/04/04 06:19:31;;;;;;;6.88;4.00;;;0.60;99.90;;;;;;5112980;27;20104;-35
2023/04/04 06:21:56;;;;;;;6.80;3.92;;;0.70;99.90;;;;;;5114566;27;20031;-35
2023/04/04 06:24:22;;;;;;;5.13;3.47;;;0.80;99.90;;;;;;5104012;28;20031;-35
2023/04/04 06:26:50;;;;;;;6.93;4.50;;;0.90;99.90;;;;;;5106756;27;20076;-35
2023/04/04 06:29:19;;;;;;;5.50;3.30;;;1.00;99.90;;;;;;5109525;28;20388;-35
2023/04/04 06:31:45;;;;;;;5.32;3.72;;;1.00;99.90;;;;;;5110068;28;20073;-36
2023/04/04 06:34:10;;;;;;;5.70;3.78;;;1.10;99.90;;;;;;5110337;28;20035;-35
2023/04/04 06:36:36;;;;;;;6.38;3.70;;;1.20;99.90;;;;;;5109980;27;20039;-35
2023/04/04 06:39:02;;;;;;;5.05;3.80;;;1.30;99.90;;;;;;5114329;28;20122;-35
2023/04/04 06:41:27;;;;;;;5.18;4.07;;;1.40;99.90;;;;;;5104688;28;20364;-36
2023/04/04 06:43:53;;;;;;;4.78;3.50;;;1.50;99.90;;;;;;5110474;28;20035;-35
2023/04/04 06:46:19;;;;;;;4.05;3.40;;;1.60;99.90;;;;;;5111122;28;20070;-35
2023/04/04 06:48:44;;;;;;;6.45;3.80;;;1.70;99.90;;;;;;5110037;27;20035;-35
2023/04/04 06:51:11;;;;;;;7.25;3.85;;;1.80;99.90;;;;;;5115846;28;20084;-35
2023/04/04 06:53:37;;;;;;;4.55;2.90;;;1.90;99.90;;;;;;5114488;27;20031;-35
2023/04/04 06:56:03;;;;;;;3.78;2.72;;;1.90;99.90;;;;;;5121558;27;20034;-36
2023/04/04 06:58:30;;;;;;;3.78;2.72;;;2.00;99.90;;;;;;5114414;28;20039;-35
2023/04/04 07:00:58;;;;;;;4.03;2.40;;;2.00;99.90;;;;;;5113412;28;20034;-35
2023/04/04 07:03:25;;;;;;;7.07;2.55;;;2.00;99.90;;;;;;5112683;28;20106;-35
2023/04/04 07:05:51;;;;;;;3.75;2.70;;;2.10;99.90;;;;;;5116852;27;20031;-35
2023/04/04 07:08:16;;;;;;;3.63;2.80;;;2.20;99.90;;;;;;5114998;28;20046;-35
2023/04/04 07:10:42;;;;;;;7.22;3.15;;;2.20;99.90;;;;;;5104577;27;20397;-36
2023/04/04 07:13:09;;;;;;;3.95;2.55;;;2.30;99.90;;;;;;5110507;28;20043;-35
2023/04/04 07:15:35;;;;;;;4.55;2.53;;;2.30;99.90;;;;;;5101594;28;20036;-36
2023/04/04 07:18:01;;;;;;;6.05;2.80;;;2.40;99.90;;;;;;5110453;27;20046;-35
2023/04/04 07:20:27;;;;;;;4.95;2.63;;;2.50;99.90;;;;;;5106607;28;20372;-36
2023/04/04 07:22:53;;;;;;;2.53;2.20;;;2.50;99.90;;;;;;5095759;27;20106;-36
2023/04/04 07:25:19;;;;;;;5.25;2.90;;;2.60;99.90;;;;;;5112938;27;20027;-35
2023/04/04 07:27:45;;;;;;;4.22;2.50;;;2.70;99.90;;;;;;5118239;27;20036;-35
2023/04/04 07:30:11;;;;;;;4.53;2.38;;;2.80;99.90;;;;;;5130008;27;20096;-35
2023/04/04 07:32:37;;;;;;;3.53;2.55;;;2.90;99.90;;;;;;5095160;28;20071;-35
2023/04/04 07:35:04;;;;;;;4.85;2.78;;;3.00;99.90;;;;;;5103924;27;20078;-35
2023/04/04 07:37:30;;;;;;;6.57;2.83;;;3.10;99.90;;;;;;5116334;27;20039;-35
2023/04/04 07:39:55;;;;;;;4.10;2.17;;;3.20;99.90;;;;;;5118098;27;20040;-36
2023/04/04 07:42:24;;;;;;;4.70;2.40;;;3.30;99.90;;;;;;5113921;27;20027;-35
2023/04/04 07:44:53;;;;;;;3.80;2.10;;;3.50;99.90;;;;;;5118322;27;20487;-36
2023/04/04 07:47:19;;;;;;;2.63;2.28;;;3.60;99.90;;;;;;5111736;27;20481;-36
2023/04/04 07:49:45;;;;;;;3.67;2.72;;;3.70;99.90;;;;;;5115376;27;20057;-35
2023/04/04 07:52:11;;;;;;;4.35;2.50;;;4.00;99.90;;;;;;5092897;27;20047;-35
2023/04/04 07:54:39;;;;;;;3.20;2.20;;;4.20;99.90;;;;;;5106447;27;20259;-36
2023/04/04 07:57:05;;;;;;;4.15;2.67;;;4.50;99.90;;;;;;5116459;27;20404;-35
2023/04/04 07:59:34;;;;;;;4.05;2.22;;;4.70;99.90;;;;;;5111660;27;20042;-36
2023/04/04 08:02:00;;;;;;;3.67;2.10;;;5.00;99.90;;;;;;5116677;27;20035;-36
2023/04/04 08:04:25;;;;;;;4.13;2.40;;;5.20;99.90;;;;;;5109283;27;20082;-36
2023/04/04 08:06:52;;;;;;;5.68;2.47;;;5.50;99.90;;;;;;5116262;27;20400;-36
2023/04/04 08:09:17;;;;;;;3.72;2.30;;;5.70;99.90;;;;;;5108901;27;20035;-36
2023/04/04 08:11:44;;;;;;;4.95;2.40;;;6.00;99.90;;;;;;5120377;27;20041;-35
2023/04/04 08:14:12;;;;;;;5.93;2.53;;;6.30;99.90;;;;;;5119356;27;20130;-34
2023/04/04 08:16:38;;;;;;;4.82;2.10;;;6.50;99.90;;;;;;5111108;27;20487;-34
2023/04/04 08:19:04;;;;;;;3.78;2.20;;;6.80;99.90;;;;;;5115052;27;20047;-34
2023/04/04 08:21:30;;;;;;;4.28;2.05;;;7.00;99.90;;;;;;5114167;27;20037;-34
2023/04/04 08:23:55;;;;;;;3.45;2.42;;;7.20;99.90;;;;;;5110028;27;20031;-36
2023/04/04 08:26:21;;;;;;;2.97;1.98;;;7.40;99.90;;;;;;5087685;27;20035;-34
2023/04/04 08:28:47;;;;;;;5.18;2.63;;;7.50;99.90;;;;;;5103196;28;20424;-34
2023/04/04 08:31:13;;;;;;;4.05;2.10;;;7.80;99.90;;;;;;5112486;27;20117;-34
2023/04/04 08:33:39;;;;;;;3.65;2.00;;;8.00;99.90;;;;;;5106034;27;20036;-34
2023/04/04 08:36:05;;;;;;;4.93;2.10;;;8.30;99.90;;;;;;5113806;27;20039;-36
2023/04/04 08:38:30;;;;;;;5.18;2.03;;;8.60;99.90;;;;;;5115068;27;20067;-34
2023/04/04 08:40:59;;;;;;;3.13;1.90;;;8.90;99.90;;;;;;5115805;27;20031;-34
2023/04/04 08:43:26;;;;;;;6.50;2.20;;;9.20;99.90;;;;;;5111398;27;20027;-35
2023/04/04 08:45:53;;;;;;;4.32;2.03;;;9.50;99.90;;;;;;5108628;28;20043;-35
2023/04/04 08:48:19;;;;;;;3.20;1.90;;;9.90;99.90;;;;;;5114385;27;20046;-35
2023/04/04 08:50:45;;;;;;;4.57;1.83;;;10.30;99.90;;;;;;5109853;27;20078;-35
2023/04/04 08:53:12;;;;;;;3.22;1.98;;;10.50;99.90;;;;;;5110811;27;20070;-35
2023/04/04 08:55:38;;;;;;;5.40;2.40;;;10.70;99.90;;;;;;5121597;27;20395;-35
2023/04/04 08:58:04;;;;;;;3.47;2.00;;;10.80;98.40;;;;;;5111323;27;20372;-35
2023/04/04 09:00:31;;;;;;;3.45;2.28;;;11.00;97.60;;;;;;5119633;27;20110;-35
2023/04/04 09:03:08;;;;;;;3.15;1.73;;;11.20;92.60;;;;;;5124432;27;20039;-35
2023/04/04 09:05:34;;;;;;;5.47;2.35;;;11.40;70.50;;;;;;5100859;28;20043;-35
2023/04/04 09:08:02;;;;;;;4.30;2.00;;;11.60;79.50;;;;;;5118131;27;20027;-35
2023/04/04 09:10:28;;;;;;;3.00;2.10;;;11.70;74.80;;;;;;5103813;27;20042;-34
2023/04/04 09:12:55;;;;;;;4.70;2.17;;;11.70;70.60;;;;;;5112279;27;20027;-35
2023/04/04 09:15:21;;;;;;;3.78;2.20;;;11.90;64.20;;;;;;5113705;27;20117;-35
2023/04/04 09:17:47;;;;;;;3.75;1.83;;;11.80;64.40;;;;;;5110462;27;20524;-35
2023/04/04 09:20:35;;;;;;;4.43;2.10;;;12.00;64.30;;;;;;5104287;27;20070;-35
2023/04/04 09:23:05;;;;;;;2.65;1.90;;;12.00;59.40;;;;;;5105717;27;20577;-35
2023/04/04 09:25:31;;;;;;;3.60;1.95;;;12.10;60.50;;;;;;5115069;27;20031;-35
2023/04/04 09:27:57;;;;;;;3.05;2.10;;;12.30;61.00;;;;;;5104997;28;20035;-35
2023/04/04 09:30:23;;;;;;;2.97;1.63;;;12.20;59.70;;;;;;5114112;27;20031;-35
2023/04/04 09:32:50;;;;;;;3.25;1.88;;;12.40;59.30;;;;;;5105246;28;20071;-35
2023/04/04 09:35:15;;;;;;;3.28;1.80;;;12.50;58.90;;;;;;5104468;27;20031;-35
2023/04/04 09:37:42;;;;;;;4.47;1.70;;;12.60;58.00;;;;;;5108265;27;20519;-35
2023/04/04 09:40:12;;;;;;;3.63;1.80;;;12.60;57.10;;;;;;5132311;27;20043;-36
2023/04/04 09:42:38;;;;;;;3.22;2.03;;;12.80;56.50;;;;;;5116144;27;20035;-34
2023/04/04 09:45:05;;;;;;;3.88;1.88;;;12.90;56.30;;;;;;5113918;27;20039;-37
2023/04/04 09:47:32;;;;;;;3.15;1.80;;;13.30;56.30;;;;;;5111699;27;20036;-35
2023/04/04 09:50:02;;;;;;;3.80;1.88;;;13.10;55.40;;;;;;5102559;28;20031;-34
2023/04/04 09:52:34;;;;;;;2.95;1.67;;;13.60;55.70;;;;;;5114149;27;20445;-35
2023/04/04 09:55:03;;;;;;;3.33;1.70;;;13.80;55.50;;;;;;5114670;27;20051;-34
2023/04/04 09:57:31;;;;;;;2.83;2.00;;;14.10;54.50;;;;;;5104202;27;20108;-35
2023/04/04 10:00:03;;;;;;;2.33;1.63;;;14.50;53.70;;;;;;5119839;27;20042;-35
2023/04/04 10:02:32;;;;;;;3.45;1.65;;;14.60;51.40;;;;;;5103611;28;20038;-35
2023/04/04 10:04:58;;;;;;;3.90;2.13;;;14.70;51.20;;;;;;5111635;27;20099;-35
2023/04/04 10:07:27;;;;;;;3.15;1.58;;;14.60;52.00;;;;;;5111219;28;20024;-34
2023/04/04 10:09:53;;;;;;;3.90;2.00;;;14.60;51.40;;;;;;5109014;27;20054;-35
2023/04/04 10:12:25;;;;;;;3.08;1.95;;;14.70;51.20;;;;;;5113514;27;20408;-35
2023/04/04 10:15:01;;;;;;;2.42;1.90;;;14.90;50.40;;;;;;5113032;27;20035;-35
2023/04/04 10:17:36;;;;;;;2.42;1.70;;;15.00;48.80;;;;;;5103962;27;20115;-34
2023/04/04 10:20:05;;;;;;;2.85;1.67;;;15.40;50.00;;;;;;5114651;27;20035;-34
2023/04/04 10:22:32;;;;;;;3.00;2.05;;;15.50;49.20;;;;;;5097680;27;20526;-34
2023/04/04 10:24:58;;;;;;;3.25;1.92;;;15.10;48.70;;;;;;5121455;27;20392;-35
2023/04/04 10:27:24;;;;;;;4.45;2.25;;;15.20;49.00;;;;;;5105061;27;20035;-35
2023/04/04 10:29:51;;;;;;;5.10;2.30;;;15.40;48.50;;;;;;5105171;27;20081;-35
2023/04/04 10:32:25;;;;;;;3.53;2.15;;;15.40;48.00;;;;;;5105315;28;20093;-35
2023/04/04 10:34:56;;;;;;;4.97;2.13;;;15.40;47.40;;;;;;5106574;27;20039;-34
2023/04/04 10:37:26;;;;;;;4.05;2.08;;;15.60;46.90;;;;;;5111006;28;20067;-34
2023/04/04 10:40:04;;;;;;;2.65;2.10;;;15.70;46.30;;;;;;5103284;27;20073;-35
2023/04/04 10:42:37;;;;;;;3.25;2.28;;;16.10;45.50;;;;;;5101689;28;20111;-34
2023/04/04 10:45:04;;;;;;;;;;;16.00;44.90;;;;;;5112514;27;20120;-35
2023/04/04 10:47:32;;;;;;;3.97;2.30;;;15.70;42.40;;;;;;5113700;28;19922;-35
2023/04/04 10:49:58;;;;;;;5.00;2.20;;;16.00;46.90;;;;;;5104852;28;20036;-35
2023/04/04 10:52:27;;;;;;;2.75;2.10;;;16.20;45.60;;;;;;5112576;27;20043;-35
2023/04/04 10:54:57;;;;;;;4.43;2.67;;;16.20;43.90;;;;;;5113795;27;20058;-35
2023/04/04 10:57:24;;;;;;;2.92;2.13;;;16.10;44.40;;;;;;5107473;28;20045;-34
2023/04/04 10:59:58;;;;;;;3.53;2.33;;;15.90;44.00;;;;;;5123370;27;20040;-35
2023/04/04 11:02:51;;;;;;;2.92;2.50;;;16.10;43.90;;;;;;5114658;27;20503;-35
2023/04/04 11:05:21;;;;;;;2.78;2.25;;;16.10;42.30;;;;;;5105414;27;20046;-35
2023/04/04 11:07:53;;;;;;;3.30;2.63;;;16.40;45.10;;;;;;5112966;27;20114;-35
2023/04/04 11:10:28;;;;;;;2.70;2.10;;;17.00;43.80;;;;;;5113338;27;20043;-35
2023/04/04 11:12:57;;;;;;;4.50;2.22;;;17.20;42.30;;;;;;5118363;27;20043;-35
2023/04/04 11:15:24;;;;;;;4.20;2.53;;;17.30;42.40;;;;;;5116661;27;20035;-35
2023/04/04 11:18:04;;;;;;;4.07;2.40;;;17.20;42.30;;;;;;5106381;27;20085;-35
2023/04/04 11:20:36;;;;;;;3.75;2.45;;;17.40;41.00;;;;;;5107273;27;20114;-35
2023/04/04 11:23:05;;;;;;;2.42;1.92;;;17.40;41.30;;;;;;5114641;27;20030;-35
2023/04/04 11:25:31;;;;;;;2.47;2.10;;;17.50;42.30;;;;;;5117264;27;20092;-35
2023/04/04 11:27:58;;;;;;;2.92;2.35;;;17.80;41.70;;;;;;5110575;27;20032;-35
2023/04/04 11:30:25;;;;;;;2.75;2.30;;;18.00;41.40;;;;;;5113418;27;20516;-35
2023/04/04 11:32:51;;;;;;;2.78;2.15;;;18.30;41.00;;;;;;5109268;28;20106;-35
2023/04/04 11:35:17;;;;;;;4.03;2.60;;;18.30;40.20;;;;;;5103280;27;20119;-35
2023/04/04 11:37:52;;;;;;;4.68;2.30;;;18.30;39.20;;;;;;5110696;27;20080;-35
2023/04/04 11:40:18;;;;;;;3.03;2.45;;;18.30;38.90;;;;;;5118958;27;20031;-35
2023/04/04 11:42:51;;;;;;;4.63;2.33;;;18.80;40.40;;;;;;5120014;27;20087;-35
2023/04/04 11:45:20;;;;;;;3.73;2.10;;;18.80;37.70;;;;;;5112812;27;20123;-35
2023/04/04 11:47:46;;;;;;;3.75;2.17;;;18.60;38.20;;;;;;5120108;27;20273;-35
2023/04/04 11:50:13;;;;;;;3.90;2.15;;;18.50;38.80;;;;;;5106830;27;20077;-34
2023/04/04 11:52:41;;;;;;;5.32;2.22;;;18.60;38.70;;;;;;5105384;27;20039;-36
2023/04/04 11:55:21;;;;;;;3.58;2.28;;;18.70;38.30;;;;;;5125076;27;20034;-35
2023/04/04 11:57:50;;;;;;;4.68;2.28;;;19.20;37.70;;;;;;5115563;27;20032;-35
2023/04/04 12:00:33;;;;;;;2.50;2.30;;;19.30;37.40;;;;;;5117050;27;20113;-35
2023/04/04 12:02:59;;;;;;;3.95;2.25;;;20.00;35.80;;;;;;5103343;27;20034;-35
2023/04/04 12:05:27;;;;;;;3.78;2.30;;;20.00;36.90;;;;;;5114748;27;20404;-35
2023/04/04 12:07:53;;;;;;;2.78;2.20;;;19.90;36.30;;;;;;5112463;27;20039;-35
2023/04/04 12:10:21;;;;;;;2.90;2.13;;;20.20;35.90;;;;;;5120332;27;20041;-35
2023/04/04 12:12:46;;;;;;;3.38;2.40;;;20.50;36.00;;;;;;5123271;27;20050;-35
2023/04/04 12:15:13;;;;;;;3.83;2.40;;;21.00;35.90;;;;;;5115510;27;20043;-35
2023/04/04 12:17:42;;;;;;;3.17;2.10;;;21.10;34.90;;;;;;5111756;27;20116;-34
2023/04/04 12:20:14;;;;;;;2.00;1.77;;;21.20;33.80;;;;;;5115530;27;20043;-36
2023/04/04 12:22:39;;;;;;;3.35;2.08;;;20.40;34.00;;;;;;5101337;27;20039;-36
2023/04/04 12:25:06;;;;;;;3.17;1.88;;;20.40;34.30;;;;;;5107130;27;20480;-35
2023/04/04 12:27:32;;;;;;;2.38;1.90;;;20.80;34.30;;;;;;5108023;27;20023;-36
2023/04/04 12:29:59;;;;;;;5.47;2.20;;;20.40;34.30;;;;;;5112327;27;20125;-35
2023/04/04 12:32:26;;;;;;;3.65;2.38;;;20.10;34.80;;;;;;5114617;27;20039;-35
2023/04/04 12:34:51;;;;;;;3.47;2.17;;;20.50;35.20;;;;;;5112956;27;20414;-35
2023/04/04 12:37:20;;;;;;;3.88;2.30;;;20.30;33.70;;;;;;5107590;27;20096;-35
2023/04/04 12:39:48;;;;;;;4.05;2.22;;;20.30;34.20;;;;;;5109714;27;20035;-36
2023/04/04 12:42:21;;;;;;;3.58;2.35;;;19.90;33.70;;;;;;5113033;27;20042;-35
2023/04/04 12:44:49;;;;;;;3.70;2.20;;;19.60;34.00;;;;;;5111065;27;20544;-35
2023/04/04 12:47:17;;;;;;;3.03;2.30;;;19.70;34.40;;;;;;5113169;27;20039;-35
2023/04/04 12:49:47;;;;;;;3.08;2.20;;;20.20;34.40;;;;;;5110350;28;20553;-35
2023/04/04 12:52:31;;;;;;;2.80;2.22;;;20.40;33.60;;;;;;5113307;27;20035;-36
2023/04/04 12:55:10;;;;;;;3.20;2.22;;;20.80;33.10;;;;;;5110863;27;20031;-35